Overview Statistics Trail Chart Weather Telemetry Raw packets
 

This is the latest recevied weather packets stored in our database for station/object EA1HEH-13. If no packets are shown the sender has not sent any weather packets the latest 10 day(s).

<< 35 36 37 38 39 40 41 >>
Time Temp. Humidity Pressure Rain* Wind** Luminosity Snow
1788087281 23.89° C 34% 939.1 hPa - - - -
1788086682 23.33° C 35% 939.2 hPa - - - -
1788086081 23.33° C 36% 939.1 hPa - - - -
1788085481 22.78° C 38% 939.2 hPa - - - -
1788084882 22.78° C 39% 939.2 hPa - - - -
1788084282 22.22° C 39% 939.2 hPa - - - -
1788083681 22.22° C 39% 939.3 hPa - - - -
1788083081 21.67° C 40% 939.4 hPa - - - -
1788082482 21.67° C 40% 939.3 hPa - - - -
1788081881 21.67° C 41% 939.4 hPa - - - -
1788081281 21.67° C 41% 939.4 hPa - - - -
1788080681 21.67° C 41% 939.4 hPa - - - -
1788080081 21.11° C 41% 939.4 hPa - - - -
1788079481 21.11° C 41% 939.4 hPa - - - -
1788078881 21.11° C 41% 939.3 hPa - - - -
1788078281 20.56° C 41% 939.3 hPa - - - -
1788077681 20.56° C 41% 939.4 hPa - - - -
1788077081 20° C 41% 939.4 hPa - - - -
1788076481 19.44° C 40% 939.4 hPa - - - -
1788075881 20° C 36% 939.4 hPa - - - -
1788075281 20.56° C 31% 939.4 hPa - - - -
1788074681 21.11° C 30% 939.3 hPa - - - -
1788074081 21.11° C 30% 939.3 hPa - - - -
1788073481 21.11° C 30% 939.3 hPa - - - -
1788072881 20.56° C 29% 939.2 hPa - - - -

* Rain since midnight (hover to see other rain measurements)
** Current wind speed in m/s (hover to see current wind gust speed)